createdAt,value
2023-02-16T00:01:47.037Z,101030.71
2023-02-16T00:04:23.358Z,101028.23
2023-02-16T00:06:51.653Z,101022.89
2023-02-16T00:09:19.110Z,101022.39
2023-02-16T00:12:05.719Z,101018.19
2023-02-16T00:14:35.712Z,101018.79
2023-02-16T00:17:03.450Z,101017.45
2023-02-16T00:19:36.012Z,101013.95
2023-02-16T00:22:05.518Z,101015.64
2023-02-16T00:24:32.992Z,101010.36
2023-02-16T00:27:01.251Z,101010.30
2023-02-16T00:29:37.660Z,101008.20
2023-02-16T00:32:12.493Z,101001.38
2023-02-16T00:34:43.386Z,100999.65
2023-02-16T00:37:13.507Z,101001.21
2023-02-16T00:39:42.423Z,101000.86
2023-02-16T00:42:19.875Z,100999.42
2023-02-16T00:44:53.575Z,100995.14
2023-02-16T00:47:37.462Z,100995.46
2023-02-16T00:50:15.501Z,100990.09
2023-02-16T00:52:47.006Z,100985.99
2023-02-16T00:55:17.481Z,100981.74
2023-02-16T00:57:59.892Z,100985.06
2023-02-16T01:00:34.181Z,100979.30
2023-02-16T01:03:06.370Z,100979.66
2023-02-16T01:05:33.901Z,100974.55
2023-02-16T01:08:20.758Z,100970.96
2023-02-16T01:11:07.460Z,100965.53
2023-02-16T01:13:55.579Z,100966.46
2023-02-16T01:16:27.706Z,100962.17
2023-02-16T01:18:54.863Z,100961.15
2023-02-16T01:21:22.137Z,100957.41
2023-02-16T01:23:49.412Z,100953.69
2023-02-16T01:26:19.130Z,100951.59
2023-02-16T01:28:47.736Z,100943.78
2023-02-16T01:31:16.860Z,100944.08
2023-02-16T01:33:44.650Z,100939.40
2023-02-16T01:36:39.879Z,100938.08
2023-02-16T01:39:07.646Z,100929.34
2023-02-16T01:41:55.099Z,100922.77
2023-02-16T01:44:29.952Z,100920.95
2023-02-16T01:47:05.838Z,100915.02
2023-02-16T01:49:33.012Z,100909.89
2023-02-16T01:52:21.896Z,100901.73
2023-02-16T01:54:52.167Z,100901.34
2023-02-16T01:57:33.964Z,100897.56
2023-02-16T02:00:09.292Z,100891.52
2023-02-16T02:02:52.388Z,100883.70
2023-02-16T02:05:36.741Z,100878.67
2023-02-16T02:08:36.117Z,100868.28
2023-02-16T02:11:22.421Z,100867.24
2023-02-16T02:14:05.620Z,100864.60
2023-02-16T02:16:33.076Z,100858.88
2023-02-16T02:19:00.870Z,100852.13
2023-02-16T02:22:05.783Z,100849.45
2023-02-16T02:24:53.126Z,100845.38
2023-02-16T02:27:25.042Z,100847.23
2023-02-16T02:30:30.907Z,100840.33
2023-02-16T02:33:11.492Z,100836.21
2023-02-16T02:36:06.072Z,100839.17
2023-02-16T02:38:57.834Z,100839.55
2023-02-16T02:41:54.424Z,100835.78
2023-02-16T02:44:22.908Z,100837.27
2023-02-16T02:46:51.280Z,100832.88
2023-02-16T02:49:19.179Z,100832.33
2023-02-16T02:51:47.572Z,100829.27
2023-02-16T02:54:38.776Z,100830.93
2023-02-16T02:57:29.988Z,100827.23
2023-02-16T03:00:27.502Z,100824.75
2023-02-16T03:03:00.367Z,100825.10
2023-02-16T03:05:31.608Z,100820.21
2023-02-16T03:08:06.568Z,100813.08
2023-02-16T03:10:56.145Z,100815.85
2023-02-16T03:13:33.715Z,100814.52
2023-02-16T03:16:06.214Z,100813.23
2023-02-16T03:18:54.515Z,100815.27
2023-02-16T03:21:40.937Z,100821.89
2023-02-16T03:24:31.564Z,100820.41
2023-02-16T03:27:17.765Z,100817.52
2023-02-16T03:29:48.705Z,100812.92
2023-02-16T03:32:17.118Z,100808.11
2023-02-16T03:34:44.431Z,100807.70
2023-02-16T03:37:12.709Z,100798.60
2023-02-16T03:39:58.933Z,100796.88
2023-02-16T03:42:26.162Z,100798.52
2023-02-16T03:44:53.567Z,100797.07
2023-02-16T03:47:20.723Z,100795.11
2023-02-16T03:49:47.943Z,100793.70
2023-02-16T03:52:15.038Z,100794.38
2023-02-16T03:54:42.098Z,100786.56
2023-02-16T03:57:09.220Z,100776.60
2023-02-16T03:59:36.370Z,100777.94
2023-02-16T04:02:03.534Z,100780.05
2023-02-16T04:04:30.832Z,100779.23
2023-02-16T04:06:57.950Z,100772.79
2023-02-16T04:09:25.075Z,100773.88
2023-02-16T04:12:11.200Z,100768.69
2023-02-16T04:14:38.114Z,100767.02
2023-02-16T04:17:05.317Z,100759.34
2023-02-16T04:19:32.493Z,100755.89
2023-02-16T04:21:59.567Z,100753.40
2023-02-16T04:24:26.669Z,100751.97
2023-02-16T04:26:53.790Z,100753.58
2023-02-16T04:29:20.969Z,100754.81
2023-02-16T04:31:48.234Z,100754.07
2023-02-16T04:34:15.806Z,100751.19
2023-02-16T04:36:42.882Z,100749.40
2023-02-16T04:39:09.932Z,100745.75
2023-02-16T04:41:37.102Z,100749.60
2023-02-16T04:44:04.380Z,100740.39
2023-02-16T04:46:31.915Z,100740.75
2023-02-16T04:48:59.064Z,100736.24
2023-02-16T04:51:26.242Z,100734.51
2023-02-16T04:53:53.313Z,100741.48
2023-02-16T04:56:20.463Z,100745.20
2023-02-16T04:58:47.640Z,100741.27
2023-02-16T05:01:23.128Z,100745.63
2023-02-16T05:03:50.316Z,100745.52
2023-02-16T05:06:18.213Z,100743.91
2023-02-16T05:08:46.053Z,100748.90
2023-02-16T05:11:32.117Z,100751.78
2023-02-16T05:14:18.368Z,100753.38
2023-02-16T05:16:46.113Z,100753.71
2023-02-16T05:19:13.750Z,100752.14
2023-02-16T05:21:40.894Z,100754.87
2023-02-16T05:24:12.127Z,100757.68
2023-02-16T05:26:40.352Z,100755.23
2023-02-16T05:29:07.628Z,100756.24
2023-02-16T05:31:34.826Z,100755.65
2023-02-16T05:34:02.156Z,100753.52
2023-02-16T05:36:29.555Z,100757.46
2023-02-16T05:38:57.174Z,100756.72
2023-02-16T05:41:24.381Z,100753.02
2023-02-16T05:43:53.809Z,100756.55
2023-02-16T05:46:22.766Z,100750.29
2023-02-16T05:48:50.331Z,100748.56
2023-02-16T05:51:18.404Z,100747.17
2023-02-16T05:53:46.019Z,100736.77
2023-02-16T05:56:13.808Z,100730.04
2023-02-16T05:58:40.959Z,100724.55
2023-02-16T06:01:08.032Z,100723.73
2023-02-16T06:03:36.049Z,100726.35
2023-02-16T06:06:05.182Z,100724.63
2023-02-16T06:08:33.171Z,100724.59
2023-02-16T06:11:00.319Z,100726.02
2023-02-16T06:13:27.499Z,100727.13
2023-02-16T06:15:56.697Z,100726.58
2023-02-16T06:18:25.024Z,100723.41
2023-02-16T06:20:52.775Z,100730.04
2023-02-16T06:23:19.863Z,100730.20
2023-02-16T06:25:51.444Z,100727.31
2023-02-16T06:28:18.624Z,100725.13
2023-02-16T06:30:45.742Z,100717.40
2023-02-16T06:33:12.842Z,100715.45
2023-02-16T06:35:39.915Z,100718.40
2023-02-16T06:38:06.993Z,100708.89
2023-02-16T06:40:34.139Z,100715.04
2023-02-16T06:43:01.190Z,100718.75
2023-02-16T06:45:28.286Z,100719.05
2023-02-16T06:47:55.334Z,100720.77
2023-02-16T06:50:22.576Z,100717.34
2023-02-16T06:52:49.661Z,100718.28
2023-02-16T06:55:16.866Z,100717.23
2023-02-16T06:57:44.204Z,100720.04
2023-02-16T07:00:11.824Z,100723.05
2023-02-16T07:02:39.506Z,100721.23
2023-02-16T07:05:06.695Z,100717.21
2023-02-16T07:07:33.870Z,100712.71
2023-02-16T07:10:02.814Z,100711.66
2023-02-16T07:12:29.887Z,100711.08
2023-02-16T07:14:57.071Z,100714.04
2023-02-16T07:17:24.129Z,100711.75
2023-02-16T07:19:51.279Z,100710.77
2023-02-16T07:22:18.346Z,100706.02
2023-02-16T07:24:45.460Z,100705.06
2023-02-16T07:27:12.587Z,100702.89
2023-02-16T07:29:40.043Z,100699.90
2023-02-16T07:32:07.230Z,100700.41
2023-02-16T07:34:34.532Z,100698.87
2023-02-16T07:37:01.647Z,100703.83
2023-02-16T07:39:30.153Z,100705.63
2023-02-16T07:41:57.380Z,100702.14
2023-02-16T07:44:26.450Z,100694.77
2023-02-16T07:46:53.681Z,100692.16
2023-02-16T07:49:20.929Z,100683.43
2023-02-16T07:51:48.004Z,100677.44
2023-02-16T07:54:15.127Z,100676.52
2023-02-16T07:56:42.304Z,100674.64
2023-02-16T07:59:09.413Z,100675.71
2023-02-16T08:01:38.146Z,100678.13
2023-02-16T08:04:06.700Z,100674.70
2023-02-16T08:06:36.923Z,100677.54
2023-02-16T08:09:04.716Z,100680.52
2023-02-16T08:11:32.432Z,100685.94
2023-02-16T08:14:00.424Z,100684.61
2023-02-16T08:16:29.114Z,100681.48
2023-02-16T08:18:58.182Z,100680.44
2023-02-16T08:21:28.355Z,100675.84
2023-02-16T08:24:01.822Z,100672.44
2023-02-16T08:26:33.486Z,100673.27
2023-02-16T08:29:02.016Z,100669.83
2023-02-16T08:31:30.865Z,100666.55
2023-02-16T08:34:00.470Z,100668.47
2023-02-16T08:36:32.552Z,100665.42
2023-02-16T08:39:01.221Z,100666.83
2023-02-16T08:41:33.798Z,100668.17
2023-02-16T08:44:01.211Z,100662.55
2023-02-16T08:46:30.316Z,100662.15
2023-02-16T08:49:00.084Z,100663.88
2023-02-16T08:51:30.570Z,100666.59
2023-02-16T08:54:00.293Z,100662.01
2023-02-16T08:56:29.859Z,100661.73
2023-02-16T08:58:57.518Z,100662.34
2023-02-16T09:01:24.580Z,100662.63
2023-02-16T09:03:52.535Z,100660.00
2023-02-16T09:06:21.594Z,100664.89
2023-02-16T09:08:54.008Z,100659.45
2023-02-16T09:11:22.843Z,100662.48
2023-02-16T09:13:51.075Z,100659.00
2023-02-16T09:16:21.294Z,100662.80
2023-02-16T09:18:49.477Z,100662.60
2023-02-16T09:21:23.043Z,100659.36
2023-02-16T09:23:50.675Z,100661.08
2023-02-16T09:26:19.980Z,100662.85
2023-02-16T09:28:48.806Z,100659.38
2023-02-16T09:31:37.355Z,100656.98
2023-02-16T09:34:08.058Z,100660.23
2023-02-16T09:36:35.341Z,100661.00
2023-02-16T09:39:02.487Z,100664.39
2023-02-16T09:41:35.650Z,100664.10
2023-02-16T09:44:38.138Z,100662.34
2023-02-16T09:47:15.906Z,100660.52
2023-02-16T09:49:47.084Z,100653.16
2023-02-16T09:52:19.712Z,100653.91
2023-02-16T09:54:54.429Z,100654.34
2023-02-16T09:57:47.110Z,100651.45
2023-02-16T10:00:52.113Z,100651.48
2023-02-16T10:03:45.691Z,100659.24
2023-02-16T10:06:24.915Z,100659.36
2023-02-16T10:08:55.715Z,100657.27
2023-02-16T10:11:48.953Z,100660.04
2023-02-16T10:14:24.685Z,100660.94
2023-02-16T10:16:59.279Z,100660.48
2023-02-16T10:19:34.039Z,100667.41
2023-02-16T10:22:05.740Z,100667.65
2023-02-16T10:24:42.899Z,100665.61
2023-02-16T10:27:15.578Z,100660.89
2023-02-16T10:29:42.882Z,100662.22
2023-02-16T10:32:19.046Z,100662.44
2023-02-16T10:34:52.016Z,100661.29
2023-02-16T10:37:25.309Z,100657.88
2023-02-16T10:40:23.157Z,100658.17
2023-02-16T10:42:59.441Z,100658.45
2023-02-16T10:45:56.483Z,100654.30
2023-02-16T10:48:24.253Z,100653.76
2023-02-16T10:50:58.838Z,100654.17
2023-02-16T10:53:32.264Z,100649.04
2023-02-16T10:55:59.952Z,100645.51
2023-02-16T10:58:39.354Z,100644.44
2023-02-16T11:01:18.885Z,100638.40
2023-02-16T11:03:50.587Z,100634.07
2023-02-16T11:06:21.960Z,100637.36
2023-02-16T11:08:50.311Z,100635.42
2023-02-16T11:11:19.153Z,100638.55
2023-02-16T11:13:50.306Z,100631.53
2023-02-16T11:16:23.151Z,100629.41
2023-02-16T11:19:21.386Z,100625.73
2023-02-16T11:21:56.608Z,100625.36
2023-02-16T11:24:31.533Z,100621.16
2023-02-16T11:27:14.666Z,100621.03
2023-02-16T11:29:41.993Z,100619.75
2023-02-16T11:32:13.994Z,100617.44
2023-02-16T11:34:47.824Z,100617.79
2023-02-16T11:37:31.131Z,100617.28
2023-02-16T11:40:03.258Z,100615.96
2023-02-16T11:42:40.734Z,100615.50
2023-02-16T11:45:09.137Z,100612.04
2023-02-16T11:47:40.045Z,100610.06
2023-02-16T11:50:30.065Z,100610.55
2023-02-16T11:53:12.563Z,100609.54
2023-02-16T11:55:50.282Z,100608.73
2023-02-16T11:58:27.930Z,100610.44
2023-02-16T12:01:10.160Z,100610.91
2023-02-16T12:03:50.057Z,100607.52
2023-02-16T12:06:23.182Z,100608.22
2023-02-16T12:08:59.412Z,100611.68
2023-02-16T12:11:41.670Z,100607.33
2023-02-16T12:14:29.350Z,100599.21
2023-02-16T12:17:30.681Z,100594.16
2023-02-16T12:20:13.186Z,100586.48
2023-02-16T12:22:49.389Z,100579.20
2023-02-16T12:25:37.987Z,100580.85
2023-02-16T12:28:17.108Z,100581.16
2023-02-16T12:31:02.802Z,100580.73
2023-02-16T12:33:57.983Z,100580.92
2023-02-16T12:36:36.618Z,100585.02
2023-02-16T12:39:17.965Z,100582.67
2023-02-16T12:42:00.988Z,100581.95
2023-02-16T12:44:46.401Z,100578.10
2023-02-16T12:47:20.925Z,100574.91
2023-02-16T12:50:22.561Z,100576.39
2023-02-16T12:53:10.856Z,100575.33
2023-02-16T12:55:43.839Z,100574.86
2023-02-16T12:58:14.990Z,100568.16
2023-02-16T13:00:51.178Z,100565.30
2023-02-16T13:03:25.824Z,100559.07
2023-02-16T13:06:31.612Z,100553.02
2023-02-16T13:09:17.054Z,100550.48
2023-02-16T13:11:50.192Z,100544.58
2023-02-16T13:14:21.200Z,100541.22
2023-02-16T13:16:56.672Z,100539.95
2023-02-16T13:19:24.056Z,100539.05
2023-02-16T13:22:12.889Z,100542.81
2023-02-16T13:25:08.025Z,100543.20
2023-02-16T13:27:53.936Z,100534.35
2023-02-16T13:30:34.063Z,100530.28
2023-02-16T13:33:37.840Z,100524.58
2023-02-16T13:36:27.529Z,100528.00
2023-02-16T13:39:12.822Z,100523.59
2023-02-16T13:41:58.362Z,100522.08
2023-02-16T13:44:38.157Z,100519.73
2023-02-16T13:47:12.301Z,100520.23
2023-02-16T13:49:46.487Z,100515.12
2023-02-16T13:52:38.802Z,100513.23
2023-02-16T13:55:21.903Z,100516.66
2023-02-16T13:57:51.190Z,100511.80
2023-02-16T14:00:33.694Z,100514.63
2023-02-16T14:03:04.198Z,100512.23
2023-02-16T14:05:38.133Z,100506.19
2023-02-16T14:08:19.697Z,100506.06
2023-02-16T14:10:56.178Z,100510.61
2023-02-16T14:13:33.084Z,100511.78
2023-02-16T14:16:29.276Z,100507.61
2023-02-16T14:19:00.034Z,100506.98
2023-02-16T14:21:27.260Z,100507.27
2023-02-16T14:23:57.169Z,100507.27
2023-02-16T14:26:25.488Z,100510.30
2023-02-16T14:29:08.216Z,100514.75
2023-02-16T14:31:45.516Z,100514.12
2023-02-16T14:34:18.579Z,100517.85
2023-02-16T14:37:28.025Z,100519.40
2023-02-16T14:40:08.299Z,100522.80
2023-02-16T14:42:36.817Z,100517.62
2023-02-16T14:45:19.698Z,100516.05
2023-02-16T14:47:55.406Z,100513.80
2023-02-16T14:50:45.984Z,100513.67
2023-02-16T14:53:48.554Z,100510.91
2023-02-16T14:56:39.592Z,100509.36
2023-02-16T14:59:06.779Z,100506.15
2023-02-16T15:01:42.886Z,100505.14
2023-02-16T15:04:12.114Z,100507.59
2023-02-16T15:06:42.943Z,100500.67
2023-02-16T15:09:24.094Z,100506.79
2023-02-16T15:12:16.791Z,100501.94
2023-02-16T15:14:52.062Z,100504.23
2023-02-16T15:17:45.016Z,100505.48
2023-02-16T15:20:30.058Z,100505.27
2023-02-16T15:23:03.788Z,100506.13
2023-02-16T15:25:38.567Z,100506.98
2023-02-16T15:28:22.079Z,100503.52
2023-02-16T15:31:03.664Z,100503.20
2023-02-16T15:33:39.702Z,100509.13
2023-02-16T15:36:12.091Z,100503.34
2023-02-16T15:38:51.399Z,100503.87
2023-02-16T15:41:30.206Z,100505.05
2023-02-16T15:43:58.981Z,100502.04
2023-02-16T15:46:34.591Z,100503.02
2023-02-16T15:49:21.970Z,100501.80
2023-02-16T15:51:49.673Z,100501.10
2023-02-16T15:54:32.244Z,100500.77
2023-02-16T15:57:02.529Z,100494.58
2023-02-16T15:59:43.492Z,100494.55
2023-02-16T16:02:13.519Z,100499.73
2023-02-16T16:04:42.491Z,100497.26
2023-02-16T16:07:14.341Z,100491.55
2023-02-16T16:09:42.645Z,100493.04
2023-02-16T16:12:13.654Z,100497.48
2023-02-16T16:14:49.065Z,100492.77
2023-02-16T16:17:21.117Z,100494.14
2023-02-16T16:19:48.909Z,100492.27
2023-02-16T16:22:36.662Z,100493.99
2023-02-16T16:25:35.657Z,100492.84
2023-02-16T16:28:05.656Z,100492.09
2023-02-16T16:30:36.806Z,100488.23
2023-02-16T16:33:09.276Z,100489.15
2023-02-16T16:35:40.149Z,100482.41
2023-02-16T16:38:33.433Z,100478.71
2023-02-16T16:41:04.265Z,100478.58
2023-02-16T16:43:33.912Z,100482.89
2023-02-16T16:46:23.531Z,100480.35
2023-02-16T16:48:53.909Z,100480.33
2023-02-16T16:51:41.028Z,100483.52
2023-02-16T16:54:30.061Z,100485.09
2023-02-16T16:56:57.543Z,100484.89
2023-02-16T16:59:24.618Z,100483.58
2023-02-16T17:01:53.017Z,100478.46
2023-02-16T17:04:22.154Z,100477.50
2023-02-16T17:06:49.397Z,100479.58
2023-02-16T17:09:16.960Z,100480.10
2023-02-16T17:11:44.244Z,100483.09
2023-02-16T17:14:17.482Z,100485.02
2023-02-16T17:16:47.023Z,100485.77
2023-02-16T17:19:16.209Z,100493.94
2023-02-16T17:21:43.741Z,100490.75
2023-02-16T17:24:10.997Z,100490.00
2023-02-16T17:26:38.221Z,100488.23
2023-02-16T17:29:06.499Z,100491.00
2023-02-16T17:31:34.187Z,100492.80
2023-02-16T17:34:01.670Z,100495.81
2023-02-16T17:36:29.105Z,100492.54
2023-02-16T17:38:56.329Z,100494.31
2023-02-16T17:41:24.533Z,100493.53
2023-02-16T17:43:52.318Z,100495.24
2023-02-16T17:46:21.676Z,100494.53
2023-02-16T17:48:55.206Z,100499.02
2023-02-16T17:51:24.817Z,100500.70
2023-02-16T17:53:52.058Z,100496.41
2023-02-16T17:56:22.754Z,100501.85
2023-02-16T17:58:50.820Z,100497.70
2023-02-16T18:01:19.515Z,100496.57
2023-02-16T18:03:46.861Z,100501.09
2023-02-16T18:06:16.055Z,100500.36
2023-02-16T18:08:44.361Z,100498.02
2023-02-16T18:11:12.409Z,100495.20
2023-02-16T18:13:39.597Z,100498.59
2023-02-16T18:16:08.050Z,100497.69
2023-02-16T18:18:39.616Z,100489.94
2023-02-16T18:21:07.334Z,100489.43
2023-02-16T18:23:34.540Z,100495.30
2023-02-16T18:26:01.613Z,100494.02
2023-02-16T18:28:30.933Z,100496.98
2023-02-16T18:30:58.586Z,100496.05
2023-02-16T18:33:26.756Z,100496.06
2023-02-16T18:35:57.492Z,100494.25
2023-02-16T18:38:24.833Z,100491.34
2023-02-16T18:40:54.091Z,100495.63
2023-02-16T18:43:21.988Z,100493.55
2023-02-16T18:45:49.829Z,100492.91
2023-02-16T18:48:17.255Z,100491.40
2023-02-16T18:50:44.869Z,100486.98
2023-02-16T18:53:12.098Z,100485.21
2023-02-16T18:55:39.322Z,100482.91
2023-02-16T18:58:08.252Z,100484.50
2023-02-16T19:00:36.421Z,100482.30
2023-02-16T19:03:04.402Z,100485.70
2023-02-16T19:05:32.382Z,100483.48
2023-02-16T19:07:59.760Z,100484.16
2023-02-16T19:10:27.144Z,100486.34
2023-02-16T19:12:54.376Z,100485.96
2023-02-16T19:15:21.674Z,100482.77
2023-02-16T19:17:48.865Z,100479.16
2023-02-16T19:20:18.666Z,100480.16
2023-02-16T19:22:47.096Z,100477.05
2023-02-16T19:25:14.843Z,100478.55
2023-02-16T19:27:42.725Z,100475.32
2023-02-16T19:30:10.801Z,100474.55
2023-02-16T19:32:41.050Z,100477.19
2023-02-16T19:35:09.961Z,100473.73
2023-02-16T19:37:37.517Z,100473.92
2023-02-16T19:40:06.853Z,100470.88
2023-02-16T19:42:33.895Z,100467.30
2023-02-16T19:45:01.093Z,100467.23
2023-02-16T19:47:28.270Z,100467.57
2023-02-16T19:49:55.344Z,100465.74
2023-02-16T19:52:22.675Z,100464.23
2023-02-16T19:54:49.950Z,100466.64
2023-02-16T19:57:17.029Z,100461.32
2023-02-16T19:59:44.024Z,100462.10
2023-02-16T20:02:15.636Z,100460.39
2023-02-16T20:04:44.731Z,100456.89
2023-02-16T20:07:11.874Z,100454.33
2023-02-16T20:09:39.255Z,100452.70
2023-02-16T20:12:06.655Z,100450.06
2023-02-16T20:14:33.952Z,100446.17
2023-02-16T20:17:01.067Z,100446.45
2023-02-16T20:19:28.087Z,100446.14
2023-02-16T20:21:55.274Z,100445.18
2023-02-16T20:24:22.445Z,100446.41
2023-02-16T20:26:52.068Z,100443.56
2023-02-16T20:29:21.000Z,100449.63
2023-02-16T20:31:52.814Z,100450.13
2023-02-16T20:34:20.569Z,100450.16
2023-02-16T20:36:47.915Z,100445.91
2023-02-16T20:39:15.669Z,100447.51
2023-02-16T20:41:43.608Z,100448.58
2023-02-16T20:44:11.711Z,100448.64
2023-02-16T20:46:40.049Z,100445.73
2023-02-16T20:49:08.308Z,100450.33
2023-02-16T20:51:36.232Z,100453.00
2023-02-16T20:54:03.867Z,100457.64
2023-02-16T20:56:31.037Z,100454.02
2023-02-16T20:58:58.172Z,100448.54
2023-02-16T21:01:32.573Z,100448.04
2023-02-16T21:04:00.536Z,100449.92
2023-02-16T21:06:28.502Z,100447.98
2023-02-16T21:08:56.137Z,100453.98
2023-02-16T21:11:24.127Z,100456.63
2023-02-16T21:13:51.899Z,100458.34
2023-02-16T21:16:19.181Z,100456.71
2023-02-16T21:18:46.459Z,100457.73
2023-02-16T21:21:15.931Z,100455.13
2023-02-16T21:23:49.213Z,100455.02
2023-02-16T21:26:17.642Z,100453.57
2023-02-16T21:28:44.733Z,100457.87
2023-02-16T21:31:15.014Z,100456.10
2023-02-16T21:33:42.592Z,100451.36
2023-02-16T21:36:12.175Z,100452.70
2023-02-16T21:38:40.525Z,100447.05
2023-02-16T21:41:24.728Z,100450.62
2023-02-16T21:44:03.062Z,100449.32
2023-02-16T21:46:33.420Z,100454.26
2023-02-16T21:49:00.977Z,100455.73
2023-02-16T21:51:34.450Z,100457.15
2023-02-16T21:54:02.242Z,100458.25
2023-02-16T21:56:29.520Z,100458.43
2023-02-16T21:58:57.386Z,100456.52
2023-02-16T22:01:28.504Z,100452.83
2023-02-16T22:03:58.762Z,100450.67
2023-02-16T22:06:28.618Z,100450.95
2023-02-16T22:08:55.923Z,100455.22
2023-02-16T22:11:23.075Z,100451.80
2023-02-16T22:13:55.139Z,100447.29
2023-02-16T22:16:23.107Z,100445.50
2023-02-16T22:18:50.343Z,100444.13
2023-02-16T22:21:17.468Z,100440.84
2023-02-16T22:23:44.585Z,100443.86
2023-02-16T22:26:20.671Z,100444.09
2023-02-16T22:28:47.747Z,100442.63
2023-02-16T22:31:15.190Z,100438.84
2023-02-16T22:33:42.384Z,100440.30
2023-02-16T22:36:13.961Z,100437.52
2023-02-16T22:38:42.044Z,100438.25
2023-02-16T22:41:11.093Z,100432.02
2023-02-16T22:43:39.191Z,100426.02
2023-02-16T22:46:08.768Z,100428.00
2023-02-16T22:48:36.510Z,100430.08
2023-02-16T22:51:08.796Z,100432.80
2023-02-16T22:53:35.953Z,100431.44
2023-02-16T22:56:06.512Z,100429.52
2023-02-16T22:58:34.039Z,100424.10
2023-02-16T23:01:01.149Z,100421.73
2023-02-16T23:03:28.993Z,100416.88
2023-02-16T23:05:56.127Z,100415.72
2023-02-16T23:08:23.350Z,100418.94
2023-02-16T23:11:00.166Z,100416.69
2023-02-16T23:13:29.150Z,100413.36
2023-02-16T23:15:57.275Z,100409.05
2023-02-16T23:18:25.173Z,100409.02
2023-02-16T23:20:52.225Z,100406.55
2023-02-16T23:23:19.290Z,100409.03
2023-02-16T23:25:49.667Z,100405.22
2023-02-16T23:28:16.867Z,100403.79
2023-02-16T23:30:46.646Z,100399.58
2023-02-16T23:33:14.424Z,100406.34
2023-02-16T23:35:42.006Z,100398.92
2023-02-16T23:38:14.502Z,100397.83
2023-02-16T23:40:42.732Z,100402.23
2023-02-16T23:43:10.765Z,100393.31
2023-02-16T23:45:38.777Z,100392.45
2023-02-16T23:48:06.180Z,100393.22
2023-02-16T23:50:33.379Z,100391.32
2023-02-16T23:53:00.589Z,100397.86
2023-02-16T23:55:27.734Z,100400.88
2023-02-16T23:57:54.832Z,100399.00
